sensor_id;sensor_type;location;lat;lon;timestamp;pressure;altitude;pressure_sealevel;temperature;humidity
71149;BME280;59072;42.144;25.200;2023-02-16T00:00:47;101509.59;;;0.42;68.24
71149;BME280;59072;42.144;25.200;2023-02-16T00:03:18;101500.81;;;0.07;69.06
71149;BME280;59072;42.144;25.200;2023-02-16T00:05:44;101511.13;;;-0.14;69.99
71149;BME280;59072;42.144;25.200;2023-02-16T00:08:09;101480.63;;;-0.04;68.81
71149;BME280;59072;42.144;25.200;2023-02-16T00:10:36;101497.47;;;0.05;69.41
71149;BME280;59072;42.144;25.200;2023-02-16T00:13:33;101502.25;;;0.11;68.94
71149;BME280;59072;42.144;25.200;2023-02-16T00:16:32;101506.00;;;0.43;68.12
71149;BME280;59072;42.144;25.200;2023-02-16T00:18:57;101511.19;;;0.20;67.85
71149;BME280;59072;42.144;25.200;2023-02-16T00:21:23;101512.06;;;-0.39;69.10
71149;BME280;59072;42.144;25.200;2023-02-16T00:23:48;101506.59;;;-0.60;69.87
71149;BME280;59072;42.144;25.200;2023-02-16T00:26:16;101513.19;;;-0.30;68.65
71149;BME280;59072;42.144;25.200;2023-02-16T00:28:43;101510.75;;;-0.45;69.06
71149;BME280;59072;42.144;25.200;2023-02-16T00:31:21;101508.44;;;-0.73;69.69
71149;BME280;59072;42.144;25.200;2023-02-16T00:33:47;101499.38;;;-0.32;68.24
71149;BME280;59072;42.144;25.200;2023-02-16T00:36:13;101505.78;;;-0.61;69.45
71149;BME280;59072;42.144;25.200;2023-02-16T00:38:38;101515.03;;;-0.19;68.72
71149;BME280;59072;42.144;25.200;2023-02-16T00:41:04;101479.69;;;-0.38;68.94
71149;BME280;59072;42.144;25.200;2023-02-16T00:43:30;101503.72;;;-0.44;68.65
71149;BME280;59072;42.144;25.200;2023-02-16T00:45:56;101505.44;;;-0.56;69.77
71149;BME280;59072;42.144;25.200;2023-02-16T00:48:23;101506.81;;;-0.39;68.87
71149;BME280;59072;42.144;25.200;2023-02-16T00:50:49;101505.16;;;-0.40;68.68
71149;BME280;59072;42.144;25.200;2023-02-16T00:53:14;101495.44;;;-0.27;69.36
71149;BME280;59072;42.144;25.200;2023-02-16T00:55:41;101499.16;;;0.06;67.38
71149;BME280;59072;42.144;25.200;2023-02-16T01:00:41;101516.53;;;-0.28;68.74
71149;BME280;59072;42.144;25.200;2023-02-16T01:03:14;101466.06;;;-0.91;69.21
71149;BME280;59072;42.144;25.200;2023-02-16T01:05:40;101485.03;;;-0.88;69.44
71149;BME280;59072;42.144;25.200;2023-02-16T01:08:10;101501.66;;;-0.89;70.39
71149;BME280;59072;42.144;25.200;2023-02-16T01:10:55;101504.44;;;-1.03;69.36
71149;BME280;59072;42.144;25.200;2023-02-16T01:13:28;101490.34;;;-1.52;71.25
71149;BME280;59072;42.144;25.200;2023-02-16T01:15:54;101477.88;;;-1.23;69.67
71149;BME280;59072;42.144;25.200;2023-02-16T01:18:22;101500.34;;;-0.70;69.50
71149;BME280;59072;42.144;25.200;2023-02-16T01:20:47;101491.34;;;-1.03;69.21
71149;BME280;59072;42.144;25.200;2023-02-16T01:23:13;101492.72;;;-1.10;72.09
71149;BME280;59072;42.144;25.200;2023-02-16T01:25:39;101484.34;;;-1.15;73.01
71149;BME280;59072;42.144;25.200;2023-02-16T01:28:24;101505.09;;;-1.12;74.59
71149;BME280;59072;42.144;25.200;2023-02-16T01:30:51;101493.75;;;-1.13;74.52
71149;BME280;59072;42.144;25.200;2023-02-16T01:33:17;101488.25;;;-1.34;73.31
71149;BME280;59072;42.144;25.200;2023-02-16T01:35:46;101497.53;;;-1.04;72.59
71149;BME280;59072;42.144;25.200;2023-02-16T01:38:20;101473.31;;;-1.45;73.88
71149;BME280;59072;42.144;25.200;2023-02-16T01:41:23;101483.84;;;-1.20;72.49
71149;BME280;59072;42.144;25.200;2023-02-16T01:44:19;101496.47;;;-1.02;72.75
71149;BME280;59072;42.144;25.200;2023-02-16T01:49:14;101485.78;;;-0.98;71.78
71149;BME280;59072;42.144;25.200;2023-02-16T01:51:49;101491.03;;;-1.11;73.42
71149;BME280;59072;42.144;25.200;2023-02-16T01:54:37;101486.03;;;-0.77;71.41
71149;BME280;59072;42.144;25.200;2023-02-16T01:57:10;101487.66;;;-0.88;71.71
71149;BME280;59072;42.144;25.200;2023-02-16T02:02:35;101486.56;;;-1.35;74.47
71149;BME280;59072;42.144;25.200;2023-02-16T02:05:30;101492.59;;;-0.96;72.64
71149;BME280;59072;42.144;25.200;2023-02-16T02:13:57;101479.94;;;-1.02;73.84
71149;BME280;59072;42.144;25.200;2023-02-16T02:16:26;101476.16;;;-1.11;73.06
71149;BME280;59072;42.144;25.200;2023-02-16T02:18:52;101483.13;;;-1.23;72.72
71149;BME280;59072;42.144;25.200;2023-02-16T02:21:46;101474.44;;;-1.36;73.08
71149;BME280;59072;42.144;25.200;2023-02-16T02:27:33;101454.56;;;-1.51;73.58
71149;BME280;59072;42.144;25.200;2023-02-16T02:35:45;101473.19;;;-1.43;73.66
71149;BME280;59072;42.144;25.200;2023-02-16T02:38:39;101469.09;;;-1.98;73.44
71149;BME280;59072;42.144;25.200;2023-02-16T02:41:34;101472.44;;;-1.32;72.12
71149;BME280;59072;42.144;25.200;2023-02-16T02:44:21;101459.38;;;-1.96;73.64
71149;BME280;59072;42.144;25.200;2023-02-16T02:46:48;101477.16;;;-1.89;73.71
71149;BME280;59072;42.144;25.200;2023-02-16T02:49:14;101481.88;;;-1.81;74.91
71149;BME280;59072;42.144;25.200;2023-02-16T02:51:39;101449.50;;;-2.31;75.87
71149;BME280;59072;42.144;25.200;2023-02-16T02:54:35;101485.34;;;-2.33;76.38
71149;BME280;59072;42.144;25.200;2023-02-16T03:00:40;101491.09;;;-1.50;75.33
71149;BME280;59072;42.144;25.200;2023-02-16T03:05:52;101489.09;;;-1.46;73.32
71149;BME280;59072;42.144;25.200;2023-02-16T03:08:24;101489.00;;;-1.83;74.46
71149;BME280;59072;42.144;25.200;2023-02-16T03:10:54;101490.78;;;-1.71;74.13
71149;BME280;59072;42.144;25.200;2023-02-16T03:13:51;101482.81;;;-1.56;73.02
71149;BME280;59072;42.144;25.200;2023-02-16T03:16:24;101468.25;;;-1.86;74.45
71149;BME280;59072;42.144;25.200;2023-02-16T03:18:51;101480.50;;;-1.74;73.98
71149;BME280;59072;42.144;25.200;2023-02-16T03:21:38;101487.63;;;-1.89;75.90
71149;BME280;59072;42.144;25.200;2023-02-16T03:24:24;101482.41;;;-1.76;76.69
71149;BME280;59072;42.144;25.200;2023-02-16T03:27:11;101473.53;;;-1.73;76.37
71149;BME280;59072;42.144;25.200;2023-02-16T03:29:56;101491.72;;;-1.46;74.51
71149;BME280;59072;42.144;25.200;2023-02-16T03:32:24;101470.38;;;-1.53;73.79
71149;BME280;59072;42.144;25.200;2023-02-16T03:34:49;101465.34;;;-1.56;73.52
71149;BME280;59072;42.144;25.200;2023-02-16T03:37:15;101485.94;;;-1.51;74.15
71149;BME280;59072;42.144;25.200;2023-02-16T03:39:43;101443.41;;;-1.92;74.46
71149;BME280;59072;42.144;25.200;2023-02-16T03:42:26;101483.25;;;-1.63;74.97
71149;BME280;59072;42.144;25.200;2023-02-16T03:44:52;101464.09;;;-1.76;75.00
71149;BME280;59072;42.144;25.200;2023-02-16T03:47:18;101448.00;;;-1.57;73.80
71149;BME280;59072;42.144;25.200;2023-02-16T03:49:43;101464.59;;;-1.45;73.28
71149;BME280;59072;42.144;25.200;2023-02-16T03:52:08;101465.63;;;-1.22;71.92
71149;BME280;59072;42.144;25.200;2023-02-16T03:54:34;101478.69;;;-1.09;70.47
71149;BME280;59072;42.144;25.200;2023-02-16T03:56:59;101478.63;;;-1.20;70.73
71149;BME280;59072;42.144;25.200;2023-02-16T03:59:25;101487.09;;;-1.30;71.00
71149;BME280;59072;42.144;25.200;2023-02-16T04:01:50;101481.25;;;-1.46;71.63
71149;BME280;59072;42.144;25.200;2023-02-16T04:04:16;101471.22;;;-1.65;71.93
71149;BME280;59072;42.144;25.200;2023-02-16T04:06:41;101488.53;;;-2.03;72.42
71149;BME280;59072;42.144;25.200;2023-02-16T04:09:06;101488.13;;;-2.49;74.39
71149;BME280;59072;42.144;25.200;2023-02-16T04:11:32;101475.69;;;-2.46;74.05
71149;BME280;59072;42.144;25.200;2023-02-16T04:14:16;101491.22;;;-2.57;75.42
71149;BME280;59072;42.144;25.200;2023-02-16T04:16:42;101475.63;;;-2.31;74.58
71149;BME280;59072;42.144;25.200;2023-02-16T04:19:07;101482.03;;;-2.23;74.76
71149;BME280;59072;42.144;25.200;2023-02-16T04:21:33;101499.81;;;-2.55;75.69
71149;BME280;59072;42.144;25.200;2023-02-16T04:23:58;101474.50;;;-2.54;75.11
71149;BME280;59072;42.144;25.200;2023-02-16T04:26:24;101469.13;;;-2.38;74.58
71149;BME280;59072;42.144;25.200;2023-02-16T04:28:50;101474.22;;;-2.10;73.43
71149;BME280;59072;42.144;25.200;2023-02-16T04:31:18;101480.78;;;-2.17;74.80
71149;BME280;59072;42.144;25.200;2023-02-16T04:33:43;101494.31;;;-1.97;74.81
71149;BME280;59072;42.144;25.200;2023-02-16T04:36:09;101488.63;;;-2.17;74.98
71149;BME280;59072;42.144;25.200;2023-02-16T04:38:34;101481.91;;;-2.34;75.05
71149;BME280;59072;42.144;25.200;2023-02-16T04:40:59;101479.13;;;-2.18;74.35
71149;BME280;59072;42.144;25.200;2023-02-16T04:43:25;101490.88;;;-1.98;73.85
71149;BME280;59072;42.144;25.200;2023-02-16T04:45:50;101474.31;;;-1.98;72.89
71149;BME280;59072;42.144;25.200;2023-02-16T04:48:16;101476.41;;;-2.04;72.77
71149;BME280;59072;42.144;25.200;2023-02-16T04:50:41;101502.19;;;-2.52;73.78
71149;BME280;59072;42.144;25.200;2023-02-16T04:53:07;101495.25;;;-3.07;74.42
71149;BME280;59072;42.144;25.200;2023-02-16T04:55:32;101479.78;;;-2.96;75.21
71149;BME280;59072;42.144;25.200;2023-02-16T04:57:58;101488.00;;;-3.02;75.21
71149;BME280;59072;42.144;25.200;2023-02-16T05:00:23;101497.94;;;-3.09;75.15
71149;BME280;59072;42.144;25.200;2023-02-16T05:02:49;101501.41;;;-3.08;75.51
71149;BME280;59072;42.144;25.200;2023-02-16T05:05:21;101485.41;;;-3.16;75.96
71149;BME280;59072;42.144;25.200;2023-02-16T05:07:47;101497.28;;;-2.84;74.62
71149;BME280;59072;42.144;25.200;2023-02-16T05:10:12;101516.81;;;-2.76;74.32
71149;BME280;59072;42.144;25.200;2023-02-16T05:12:38;101493.75;;;-2.70;74.20
71149;BME280;59072;42.144;25.200;2023-02-16T05:15:21;101511.78;;;-2.65;73.50
71149;BME280;59072;42.144;25.200;2023-02-16T05:17:47;101500.19;;;-2.61;73.66
71149;BME280;59072;42.144;25.200;2023-02-16T05:20:12;101497.78;;;-2.37;73.26
71149;BME280;59072;42.144;25.200;2023-02-16T05:22:38;101507.53;;;-2.26;72.83
71149;BME280;59072;42.144;25.200;2023-02-16T05:25:05;101522.78;;;-2.33;74.06
71149;BME280;59072;42.144;25.200;2023-02-16T05:27:31;101517.19;;;-2.14;73.74
71149;BME280;59072;42.144;25.200;2023-02-16T05:29:57;101530.97;;;-2.12;73.32
71149;BME280;59072;42.144;25.200;2023-02-16T05:32:23;101535.25;;;-2.11;73.16
71149;BME280;59072;42.144;25.200;2023-02-16T05:34:48;101537.19;;;-2.27;73.46
71149;BME280;59072;42.144;25.200;2023-02-16T05:37:15;101537.88;;;-2.11;73.14
71149;BME280;59072;42.144;25.200;2023-02-16T05:39:41;101522.47;;;-2.28;73.11
71149;BME280;59072;42.144;25.200;2023-02-16T05:42:07;101545.31;;;-2.05;73.37
71149;BME280;59072;42.144;25.200;2023-02-16T05:44:35;101531.09;;;-2.00;73.30
71149;BME280;59072;42.144;25.200;2023-02-16T05:47:01;101544.84;;;-1.84;74.30
71149;BME280;59072;42.144;25.200;2023-02-16T05:49:26;101542.03;;;-1.68;73.55
71149;BME280;59072;42.144;25.200;2023-02-16T05:51:52;101552.19;;;-1.76;75.44
71149;BME280;59072;42.144;25.200;2023-02-16T05:54:17;101544.00;;;-1.72;75.18
71149;BME280;59072;42.144;25.200;2023-02-16T05:56:48;101553.06;;;-1.63;75.66
71149;BME280;59072;42.144;25.200;2023-02-16T05:59:14;101555.34;;;-1.58;76.08
71149;BME280;59072;42.144;25.200;2023-02-16T06:01:40;101555.16;;;-1.30;75.62
71149;BME280;59072;42.144;25.200;2023-02-16T06:04:08;101561.41;;;-1.45;76.25
71149;BME280;59072;42.144;25.200;2023-02-16T06:06:34;101562.03;;;-1.54;76.51
71149;BME280;59072;42.144;25.200;2023-02-16T06:09:00;101558.81;;;-1.32;76.11
71149;BME280;59072;42.144;25.200;2023-02-16T06:11:25;101566.88;;;-1.48;76.17
71149;BME280;59072;42.144;25.200;2023-02-16T06:14:04;101549.06;;;-1.43;75.89
71149;BME280;59072;42.144;25.200;2023-02-16T06:16:31;101551.78;;;-1.32;75.23
71149;BME280;59072;42.144;25.200;2023-02-16T06:19:00;101563.41;;;-1.36;76.41
71149;BME280;59072;42.144;25.200;2023-02-16T06:21:26;101551.25;;;-1.37;76.33
71149;BME280;59072;42.144;25.200;2023-02-16T06:23:52;101566.78;;;-1.08;74.73
71149;BME280;59072;42.144;25.200;2023-02-16T06:26:17;101557.75;;;-1.04;74.03
71149;BME280;59072;42.144;25.200;2023-02-16T06:28:43;101562.25;;;-1.32;76.11
71149;BME280;59072;42.144;25.200;2023-02-16T06:31:08;101558.06;;;-1.22;75.82
71149;BME280;59072;42.144;25.200;2023-02-16T06:33:34;101579.84;;;-0.95;75.20
71149;BME280;59072;42.144;25.200;2023-02-16T06:36:00;101583.59;;;-0.87;74.80
71149;BME280;59072;42.144;25.200;2023-02-16T06:38:26;101546.00;;;-0.98;74.71
71149;BME280;59072;42.144;25.200;2023-02-16T06:40:52;101562.31;;;-0.69;73.53
71149;BME280;59072;42.144;25.200;2023-02-16T06:43:18;101569.81;;;-0.28;72.52
71149;BME280;59072;42.144;25.200;2023-02-16T06:45:43;101591.72;;;-0.05;71.97
71149;BME280;59072;42.144;25.200;2023-02-16T06:48:09;101592.59;;;0.31;70.37
71149;BME280;59072;42.144;25.200;2023-02-16T06:50:34;101593.22;;;0.11;71.30
71149;BME280;59072;42.144;25.200;2023-02-16T06:53:00;101601.34;;;0.43;70.20
71149;BME280;59072;42.144;25.200;2023-02-16T06:55:25;101605.31;;;0.71;69.16
71149;BME280;59072;42.144;25.200;2023-02-16T06:57:50;101582.88;;;0.67;69.02
71149;BME280;59072;42.144;25.200;2023-02-16T07:00:16;101604.84;;;0.77;69.67
71149;BME280;59072;42.144;25.200;2023-02-16T07:02:41;101595.91;;;0.91;69.38
71149;BME280;59072;42.144;25.200;2023-02-16T07:05:08;101586.72;;;0.86;69.58
71149;BME280;59072;42.144;25.200;2023-02-16T07:07:34;101601.03;;;1.27;68.98
71149;BME280;59072;42.144;25.200;2023-02-16T07:10:00;101608.94;;;1.38;68.57
71149;BME280;59072;42.144;25.200;2023-02-16T07:12:27;101583.09;;;1.54;67.72
71149;BME280;59072;42.144;25.200;2023-02-16T07:14:52;101580.03;;;1.49;67.54
71149;BME280;59072;42.144;25.200;2023-02-16T07:17:17;101605.78;;;1.78;67.59
71149;BME280;59072;42.144;25.200;2023-02-16T07:19:43;101587.09;;;1.92;67.12
71149;BME280;59072;42.144;25.200;2023-02-16T07:22:08;101584.41;;;2.04;66.80
71149;BME280;59072;42.144;25.200;2023-02-16T07:24:34;101600.19;;;2.04;66.19
71149;BME280;59072;42.144;25.200;2023-02-16T07:27:00;101605.63;;;2.23;67.09
71149;BME280;59072;42.144;25.200;2023-02-16T07:29:25;101598.53;;;2.03;66.74
71149;BME280;59072;42.144;25.200;2023-02-16T07:31:51;101606.91;;;2.50;65.74
71149;BME280;59072;42.144;25.200;2023-02-16T07:34:17;101608.66;;;2.60;66.75
71149;BME280;59072;42.144;25.200;2023-02-16T07:36:43;101592.84;;;2.39;65.76
71149;BME280;59072;42.144;25.200;2023-02-16T07:39:10;101612.06;;;2.72;65.03
71149;BME280;59072;42.144;25.200;2023-02-16T07:41:36;101579.75;;;3.01;64.25
71149;BME280;59072;42.144;25.200;2023-02-16T07:44:02;101600.94;;;3.30;62.93
71149;BME280;59072;42.144;25.200;2023-02-16T07:46:27;101607.50;;;3.36;63.97
71149;BME280;59072;42.144;25.200;2023-02-16T07:48:53;101611.56;;;3.50;64.13
71149;BME280;59072;42.144;25.200;2023-02-16T07:51:21;101600.72;;;3.53;64.28
71149;BME280;59072;42.144;25.200;2023-02-16T07:53:46;101599.41;;;3.68;63.41
71149;BME280;59072;42.144;25.200;2023-02-16T07:56:33;101593.19;;;3.98;62.76
71149;BME280;59072;42.144;25.200;2023-02-16T07:59:02;101594.56;;;3.83;63.85
71149;BME280;59072;42.144;25.200;2023-02-16T08:01:29;101595.53;;;3.92;63.11
71149;BME280;59072;42.144;25.200;2023-02-16T08:03:55;101584.16;;;4.01;62.53
71149;BME280;59072;42.144;25.200;2023-02-16T08:06:21;101582.47;;;4.10;61.77
71149;BME280;59072;42.144;25.200;2023-02-16T08:08:47;101584.13;;;4.50;61.46
71149;BME280;59072;42.144;25.200;2023-02-16T08:11:20;101580.19;;;4.63;61.23
71149;BME280;59072;42.144;25.200;2023-02-16T08:13:46;101594.41;;;5.00;59.54
71149;BME280;59072;42.144;25.200;2023-02-16T08:16:22;101583.72;;;4.92;59.84
71149;BME280;59072;42.144;25.200;2023-02-16T08:18:49;101588.41;;;5.08;60.27
71149;BME280;59072;42.144;25.200;2023-02-16T08:21:23;101572.06;;;4.85;59.44
71149;BME280;59072;42.144;25.200;2023-02-16T08:24:00;101562.00;;;4.98;59.76
71149;BME280;59072;42.144;25.200;2023-02-16T08:26:29;101575.97;;;5.18;59.53
71149;BME280;59072;42.144;25.200;2023-02-16T08:28:56;101582.13;;;5.64;58.97
71149;BME280;59072;42.144;25.200;2023-02-16T08:31:24;101589.22;;;5.46;58.52
71149;BME280;59072;42.144;25.200;2023-02-16T08:33:51;101589.31;;;5.54;58.68
71149;BME280;59072;42.144;25.200;2023-02-16T08:36:25;101592.81;;;5.72;58.64
71149;BME280;59072;42.144;25.200;2023-02-16T08:38:52;101576.31;;;5.60;58.94
71149;BME280;59072;42.144;25.200;2023-02-16T08:41:22;101590.88;;;6.10;57.61
71149;BME280;59072;42.144;25.200;2023-02-16T08:43:49;101588.22;;;6.28;56.53
71149;BME280;59072;42.144;25.200;2023-02-16T08:46:15;101587.59;;;6.34;56.73
71149;BME280;59072;42.144;25.200;2023-02-16T08:48:41;101596.94;;;6.64;56.36
71149;BME280;59072;42.144;25.200;2023-02-16T08:51:16;101587.53;;;6.70;56.20
71149;BME280;59072;42.144;25.200;2023-02-16T08:53:42;101594.28;;;6.64;55.85
71149;BME280;59072;42.144;25.200;2023-02-16T08:56:09;101593.34;;;7.00;54.94
71149;BME280;59072;42.144;25.200;2023-02-16T08:58:35;101604.47;;;7.03;54.73
71149;BME280;59072;42.144;25.200;2023-02-16T09:01:05;101601.16;;;6.75;55.39
71149;BME280;59072;42.144;25.200;2023-02-16T09:03:33;101600.06;;;7.20;55.23
71149;BME280;59072;42.144;25.200;2023-02-16T09:06:02;101595.53;;;7.47;55.05
71149;BME280;59072;42.144;25.200;2023-02-16T09:08:28;101585.13;;;7.70;53.90
71149;BME280;59072;42.144;25.200;2023-02-16T09:10:53;101590.66;;;7.93;54.32
71149;BME280;59072;42.144;25.200;2023-02-16T09:13:20;101599.63;;;8.09;53.05
71149;BME280;59072;42.144;25.200;2023-02-16T09:15:45;101583.69;;;8.09;52.26
71149;BME280;59072;42.144;25.200;2023-02-16T09:18:12;101592.69;;;8.32;51.93
71149;BME280;59072;42.144;25.200;2023-02-16T09:20:42;101572.41;;;8.64;49.73
71149;BME280;59072;42.144;25.200;2023-02-16T09:23:10;101586.97;;;8.93;49.57
71149;BME280;59072;42.144;25.200;2023-02-16T09:25:40;101577.50;;;8.82;48.91
71149;BME280;59072;42.144;25.200;2023-02-16T09:28:06;101597.25;;;9.04;48.36
71149;BME280;59072;42.144;25.200;2023-02-16T09:30:34;101584.91;;;9.19;49.39
71149;BME280;59072;42.144;25.200;2023-02-16T09:33:02;101574.97;;;9.44;47.71
71149;BME280;59072;42.144;25.200;2023-02-16T09:35:27;101585.84;;;9.27;47.02
71149;BME280;59072;42.144;25.200;2023-02-16T09:37:53;101556.66;;;9.10;47.86
71149;BME280;59072;42.144;25.200;2023-02-16T09:40:19;101580.59;;;9.50;47.26
71149;BME280;59072;42.144;25.200;2023-02-16T09:45:27;101551.47;;;9.17;47.06
71149;BME280;59072;42.144;25.200;2023-02-16T09:47:55;101562.31;;;9.70;46.14
71149;BME280;59072;42.144;25.200;2023-02-16T09:50:25;101568.88;;;10.36;46.00
71149;BME280;59072;42.144;25.200;2023-02-16T09:53:21;101566.53;;;10.10;45.89
71149;BME280;59072;42.144;25.200;2023-02-16T09:56:07;101560.66;;;10.15;45.52
71149;BME280;59072;42.144;25.200;2023-02-16T10:01:46;101554.94;;;10.94;43.02
71149;BME280;59072;42.144;25.200;2023-02-16T10:04:48;101555.47;;;11.04;43.03
71149;BME280;59072;42.144;25.200;2023-02-16T10:07:32;101545.81;;;11.03;42.31
71149;BME280;59072;42.144;25.200;2023-02-16T10:10:05;101524.97;;;11.28;42.35
71149;BME280;59072;42.144;25.200;2023-02-16T10:12:37;101532.78;;;11.30;41.93
71149;BME280;59072;42.144;25.200;2023-02-16T10:15:16;101541.53;;;11.23;42.49
71149;BME280;59072;42.144;25.200;2023-02-16T10:17:46;101533.75;;;11.43;41.05
71149;BME280;59072;42.144;25.200;2023-02-16T10:25:47;101533.41;;;12.61;40.92
71149;BME280;59072;42.144;25.200;2023-02-16T10:28:21;101529.16;;;12.45;40.52
71149;BME280;59072;42.144;25.200;2023-02-16T10:31:03;101523.84;;;12.86;39.45
71149;BME280;59072;42.144;25.200;2023-02-16T10:34:05;101507.19;;;12.56;39.63
71149;BME280;59072;42.144;25.200;2023-02-16T10:45:23;101517.53;;;13.49;37.88
71149;BME280;59072;42.144;25.200;2023-02-16T10:47:50;101508.81;;;13.34;37.58
71149;BME280;59072;42.144;25.200;2023-02-16T10:50:30;101507.50;;;14.04;36.17
71149;BME280;59072;42.144;25.200;2023-02-16T10:53:05;101505.41;;;13.93;37.02
71149;BME280;59072;42.144;25.200;2023-02-16T10:55:32;101497.38;;;14.06;36.78
71149;BME280;59072;42.144;25.200;2023-02-16T10:58:00;101472.56;;;14.38;35.34
71149;BME280;59072;42.144;25.200;2023-02-16T11:00:37;101469.25;;;14.42;34.91
71149;BME280;59072;42.144;25.200;2023-02-16T11:03:09;101475.44;;;14.36;34.65
71149;BME280;59072;42.144;25.200;2023-02-16T11:05:37;101484.56;;;14.35;35.24
71149;BME280;59072;42.144;25.200;2023-02-16T11:08:05;101455.84;;;14.36;35.70
71149;BME280;59072;42.144;25.200;2023-02-16T11:10:38;101463.53;;;13.99;36.00
71149;BME280;59072;42.144;25.200;2023-02-16T11:13:29;101460.81;;;14.32;35.06
71149;BME280;59072;42.144;25.200;2023-02-16T11:15:59;101466.75;;;14.54;35.91
71149;BME280;59072;42.144;25.200;2023-02-16T11:18:30;101458.88;;;14.73;34.40
71149;BME280;59072;42.144;25.200;2023-02-16T11:20:57;101442.25;;;14.96;34.25
71149;BME280;59072;42.144;25.200;2023-02-16T11:26:00;101456.75;;;15.58;32.93
71149;BME280;59072;42.144;25.200;2023-02-16T11:28:33;101435.59;;;15.05;34.11
71149;BME280;59072;42.144;25.200;2023-02-16T11:31:26;101449.41;;;15.47;33.22
71149;BME280;59072;42.144;25.200;2023-02-16T11:36:31;101436.91;;;16.10;32.52
71149;BME280;59072;42.144;25.200;2023-02-16T11:41:49;101431.97;;;16.06;32.16
71149;BME280;59072;42.144;25.200;2023-02-16T11:44:36;101426.44;;;16.20;31.83
71149;BME280;59072;42.144;25.200;2023-02-16T11:47:08;101420.63;;;16.04;32.01
71149;BME280;59072;42.144;25.200;2023-02-16T11:49:44;101431.00;;;15.69;32.77
71149;BME280;59072;42.144;25.200;2023-02-16T11:52:39;101416.44;;;16.09;32.13
71149;BME280;59072;42.144;25.200;2023-02-16T11:57:48;101405.97;;;16.37;30.68
71149;BME280;59072;42.144;25.200;2023-02-16T12:00:20;101410.91;;;16.22;31.50
71149;BME280;59072;42.144;25.200;2023-02-16T12:06:02;101403.66;;;15.79;31.77
71149;BME280;59072;42.144;25.200;2023-02-16T12:08:40;101399.47;;;16.63;30.49
71149;BME280;59072;42.144;25.200;2023-02-16T12:12:16;101394.50;;;17.75;29.57
71149;BME280;59072;42.144;25.200;2023-02-16T12:16:57;101382.31;;;18.72;27.19
71149;BME280;59072;42.144;25.200;2023-02-16T12:22:07;101387.97;;;18.99;26.46
71149;BME280;59072;42.144;25.200;2023-02-16T12:27:39;101375.44;;;17.88;27.55
71149;BME280;59072;42.144;25.200;2023-02-16T12:33:02;101371.78;;;17.94;27.86
71149;BME280;59072;42.144;25.200;2023-02-16T12:38:16;101351.06;;;18.35;27.32
71149;BME280;59072;42.144;25.200;2023-02-16T12:43:33;101344.53;;;18.89;26.84
71149;BME280;59072;42.144;25.200;2023-02-16T12:46:15;101341.63;;;18.78;27.87
71149;BME280;59072;42.144;25.200;2023-02-16T12:49:06;101338.44;;;18.81;26.95
71149;BME280;59072;42.144;25.200;2023-02-16T12:51:51;101337.56;;;18.64;27.42
71149;BME280;59072;42.144;25.200;2023-02-16T12:54:44;101323.16;;;18.87;26.94
71149;BME280;59072;42.144;25.200;2023-02-16T12:57:13;101322.44;;;19.25;26.04
71149;BME280;59072;42.144;25.200;2023-02-16T12:59:53;101319.88;;;19.70;25.64
71149;BME280;59072;42.144;25.200;2023-02-16T13:02:27;101333.25;;;20.20;24.89
71149;BME280;59072;42.144;25.200;2023-02-16T13:05:02;101331.75;;;20.30;25.02
71149;BME280;59072;42.144;25.200;2023-02-16T13:07:41;101324.63;;;20.45;24.01
71149;BME280;59072;42.144;25.200;2023-02-16T13:10:20;101310.63;;;20.54;23.62
71149;BME280;59072;42.144;25.200;2023-02-16T13:12:56;101305.09;;;20.98;23.30
71149;BME280;59072;42.144;25.200;2023-02-16T13:15:37;101301.22;;;20.61;23.57
71149;BME280;59072;42.144;25.200;2023-02-16T13:18:13;101304.03;;;19.78;24.60
71149;BME280;59072;42.144;25.200;2023-02-16T13:20:46;101298.03;;;19.59;24.89
71149;BME280;59072;42.144;25.200;2023-02-16T13:32:08;101298.59;;;20.44;23.48
71149;BME280;59072;42.144;25.200;2023-02-16T13:35:18;101284.03;;;21.05;22.54
71149;BME280;59072;42.144;25.200;2023-02-16T13:37:57;101268.13;;;21.56;22.16
71149;BME280;59072;42.144;25.200;2023-02-16T13:43:29;101288.59;;;21.79;21.93
71149;BME280;59072;42.144;25.200;2023-02-16T13:45:58;101277.66;;;22.27;21.81
71149;BME280;59072;42.144;25.200;2023-02-16T13:48:56;101286.44;;;23.37;20.50
71149;BME280;59072;42.144;25.200;2023-02-16T13:51:25;101275.34;;;23.08;20.87
71149;BME280;59072;42.144;25.200;2023-02-16T13:53:57;101281.22;;;23.61;19.70
71149;BME280;59072;42.144;25.200;2023-02-16T13:58:59;101278.69;;;24.84;19.10
71149;BME280;59072;42.144;25.200;2023-02-16T14:01:50;101285.31;;;24.29;19.77
71149;BME280;59072;42.144;25.200;2023-02-16T14:06:46;101283.91;;;24.81;18.58
71149;BME280;59072;42.144;25.200;2023-02-16T14:12:24;101270.63;;;24.24;19.33
71149;BME280;59072;42.144;25.200;2023-02-16T14:22:42;101264.19;;;25.48;18.17
71149;BME280;59072;42.144;25.200;2023-02-16T14:27:53;101254.91;;;24.06;19.30
71149;BME280;59072;42.144;25.200;2023-02-16T14:30:41;101251.75;;;23.73;19.90
71149;BME280;59072;42.144;25.200;2023-02-16T14:35:43;101249.69;;;24.15;19.67
71149;BME280;59072;42.144;25.200;2023-02-16T14:38:29;101245.91;;;24.90;19.47
71149;BME280;59072;42.144;25.200;2023-02-16T14:41:04;101247.66;;;26.25;17.55
71149;BME280;59072;42.144;25.200;2023-02-16T14:43:46;101246.84;;;25.62;18.35
71149;BME280;59072;42.144;25.200;2023-02-16T14:57:25;101241.44;;;23.65;20.23
71149;BME280;59072;42.144;25.200;2023-02-16T15:00:17;101240.47;;;22.63;21.19
71149;BME280;59072;42.144;25.200;2023-02-16T15:05:33;101226.31;;;22.25;21.49
71149;BME280;59072;42.144;25.200;2023-02-16T15:08:15;101219.22;;;21.51;21.89
71149;BME280;59072;42.144;25.200;2023-02-16T15:10:43;101220.31;;;19.94;24.01